Language selection

Features

My Weather Profile Weather Topics  | 

Explorer - northwestern half: Past 24 Hour Conditions

 

South Hecate Strait - 46185

06:00 PM PST 11 November 2019Buoy position: 52.43N 129.79W
Disclaimer

This table is a summary of hourly weather conditions for the past 24 hours.
Please note that these observations might not always be representative of weather conditions over their associated marine area.

Date / Time
(PST)
Wind(knots) Wave height(m) Wave period(s) Pressure(kPa) Air tempC) Water tempC)
11 November 2019
18:00 SSE 23 gust 29 4.4 10.0 101.3 10 10
17:00 SSE 23 gust 29 4.8 10.0 101.3 10 10
16:00 SSE 25 gust 31 5.3 10.0 101.3 10 10
15:00 SSE 27 gust 35 5.0 10.0 101.3 10 10
14:00 SSE 27 gust 33 5.2 9.0 101.3 10 10
13:00 SSE 27 gust 35 5.2 9.0 101.4 10 10
12:00 SSE 31 gust 39 4.5 8.0 101.4 9 10
11:00 SSE 31 gust 37 4.5 10.0 101.4 9 10
10:00 SE 33 gust 41 4.6 8.0 101.4 9 10
9:00 SE 33 gust 39 3.8 8.0 101.5 9 10
8:00 SE 33 gust 41 4.0 8.0 101.4 9 11
7:00 SE 31 gust 39 3.1 7.0 101.6 9 11
6:00 ESE 29 gust 35 2.9 6.0 101.7 9 11
5:00 ESE 29 gust 33 2.6 6.0 101.8 9 10
4:00 ESE 25 gust 31 2.1 6.0 101.9 9 10
3:00 ESE 25 gust 31 1.9 6.0 102.0 9 11
2:00 ESE 22 gust 27 1.8 5.0 102.1 10 10
1:00 ESE 22 gust 27 1.7 5.0 102.1 9 10
0:00 ESE 19 gust 23 1.6 5.0 102.2 10 10
10 November 2019
23:00 ESE 19 gust 23 1.5 9.0 102.2 10 10
22:00 ESE 19 gust 22 1.2 9.0 102.3 10 11
21:00 ESE 17 gust 19 1.1 10.0 102.4 10 11
20:00 ESE 16 gust 17 1.2 8.0 102.4 10 10
19:00 ESE 13 gust 17 1.1 9.0 102.4 10 10
18:00 ESE 12 gust 13 1.0 8.0 102.5 9 10

Zoom-in to make a selection

Map of Pacific - North Coast marine weather areas Middle Nomad - 46004 South Nomad - 46036 Dixon Entrance Central - 46145 South Moresby - 46147 Nanakwa Shoal - 46181 North Hecate Strait - 46183 North Nomad - 46184 South Hecate Strait - 46185 West Sea Otter - 46204 West Dixon Entrance - 46205 East Dellwood - 46207 West Moresby - 46208 Sartine Island Cape St.James Kindakun Rocks Langara Island Masset Municipal Airport Rose Spit Sandspit Airport Bella Bella Airport Bella Coola Airport Bonilla Island Cathedral Point Cumshewa Island Grey Islet Holland Rock Lucy Islands Lightstation Prince Rupert Airport
Legend:
buoy Buoy
land station Land Station

Pacific - North Coast Area

Another Region

What we are doing

Date modified: